Time;durP1;ratioP1;P1;durP2;ratioP2;P2;SDS_P1;SDS_P2;PMS_P1;PMS_P2;Temp;Humidity;BMP_temperature;BMP_pressure;BME280_temperature;BME280_humidity;BME280_pressure;Samples;Min_cycle;Max_cycle;Signal;HPM_P1;HPM_P2
2022/10/20 00:00:57;;;;;;;0.20;0.20;;;;;;;;;;1802055;78;26267;-45
2022/10/20 00:03:25;;;;;;;0.30;0.30;;;;;;;;;;1780404;79;26264;-44
2022/10/20 00:05:52;;;;;;;0.20;0.20;;;;;;;;;;1796953;77;26285;-49
2022/10/20 00:08:20;;;;;;;0.30;0.30;;;;;;;;;;1802122;78;26282;-45
2022/10/20 00:10:54;;;;;;;0.20;0.20;;;;;;;;;;1800651;79;26259;-47
2022/10/20 00:13:22;;;;;;;0.30;0.30;;;;;;;;;;1797578;78;26332;-46
2022/10/20 00:15:52;;;;;;;0.10;0.10;;;;;;;;;;1803680;78;26768;-46
2022/10/20 00:18:20;;;;;;;0.20;0.20;;;;;;;;;;1795091;78;26246;-46
2022/10/20 00:20:47;;;;;;;0.25;0.25;;;;;;;;;;1802476;78;26700;-45
2022/10/20 00:23:15;;;;;;;0.20;0.20;;;;;;;;;;1797333;78;26275;-48
2022/10/20 00:25:42;;;;;;;0.20;0.20;;;;;;;;;;1795934;78;26262;-50
2022/10/20 00:28:09;;;;;;;0.30;0.30;;;;;;;;;;1796550;78;26320;-44
2022/10/20 00:30:37;;;;;;;0.37;0.20;;;;;;;;;;1795305;78;26402;-48
2022/10/20 00:33:04;;;;;;;0.20;0.20;;;;;;;;;;1803750;77;26272;-45
2022/10/20 00:35:32;;;;;;;0.15;0.15;;;;;;;;;;1810801;77;27369;-49
2022/10/20 00:38:00;;;;;;;0.25;0.25;;;;;;;;;;1796060;77;26376;-49
2022/10/20 00:40:27;;;;;;;0.20;0.20;;;;;;;;;;1799789;78;26264;-43
2022/10/20 00:42:54;;;;;;;0.20;0.20;;;;;;;;;;1802852;78;26235;-46
2022/10/20 00:45:21;;;;;;;0.13;0.13;;;;;;;;;;1802194;78;26273;-43
2022/10/20 00:47:50;;;;;;;0.10;0.10;;;;;;;;;;1795077;78;26727;-45
2022/10/20 00:50:19;;;;;;;0.20;0.20;;;;;;;;;;1795540;78;26728;-47
2022/10/20 00:52:47;;;;;;;0.13;0.13;;;;;;;;;;1812595;77;26370;-45
2022/10/20 00:55:16;;;;;;;0.10;0.10;;;;;;;;;;1810233;78;26346;-42
2022/10/20 00:57:44;;;;;;;0.15;0.15;;;;;;;;;;1810483;78;26306;-45
2022/10/20 01:00:12;;;;;;;0.17;0.17;;;;;;;;;;1802724;78;26530;-44
2022/10/20 01:02:39;;;;;;;0.30;0.30;;;;;;;;;;1805520;78;26352;-47
2022/10/20 01:05:07;;;;;;;0.20;0.20;;;;;;;;;;1800885;78;26270;-43
2022/10/20 01:13:04;;;;;;;0.15;0.15;;;;;;;;;;1832873;75;26348;-41
2022/10/20 01:15:45;;;;;;;0.20;0.20;;;;;;;;;;1836407;76;26295;-42
2022/10/20 01:18:20;;;;;;;0.30;0.30;;;;;;;;;;1839705;76;26338;-44
2022/10/20 01:20:51;;;;;;;0.10;0.10;;;;;;;;;;1826652;76;26483;-42
2022/10/20 01:23:32;;;;;;;1.85;0.20;;;;;;;;;;1835055;76;26217;-46
2022/10/20 01:26:13;;;;;;;0.13;0.13;;;;;;;;;;1839166;76;26253;-45
2022/10/20 01:28:47;;;;;;;0.13;0.13;;;;;;;;;;1839950;76;26261;-46
2022/10/20 01:31:25;;;;;;;0.10;0.10;;;;;;;;;;1845390;76;26224;-42
2022/10/20 01:33:54;;;;;;;0.17;0.17;;;;;;;;;;1863871;76;26366;-43
2022/10/20 01:36:29;;;;;;;0.10;0.10;;;;;;;;;;1827168;77;26496;-47
2022/10/20 01:38:57;;;;;;;0.20;0.20;;;;;;;;;;1833752;76;26339;-41
2022/10/20 01:41:31;;;;;;;0.30;0.30;;;;;;;;;;1824446;76;26229;-44
2022/10/20 01:43:59;;;;;;;0.17;0.17;;;;;;;;;;1837627;76;26280;-43
2022/10/20 01:46:26;;;;;;;0.30;0.25;;;;;;;;;;1843957;76;26339;-46
2022/10/20 01:48:55;;;;;;;0.10;0.10;;;;;;;;;;1843746;76;26193;-49
2022/10/20 01:51:23;;;;;;;1.30;0.20;;;;;;;;;;1842558;76;26265;-44
2022/10/20 01:53:50;;;;;;;0.20;0.20;;;;;;;;;;1842892;76;26292;-42
2022/10/20 01:56:21;;;;;;;0.10;0.10;;;;;;;;;;1831061;78;26261;-49
2022/10/20 01:58:57;;;;;;;0.10;0.10;;;;;;;;;;1832126;78;26267;-44
2022/10/20 02:01:31;;;;;;;0.10;0.10;;;;;;;;;;1814750;77;26301;-43
2022/10/20 02:04:00;;;;;;;0.20;0.20;;;;;;;;;;1815604;77;26282;-45
2022/10/20 02:06:32;;;;;;;0.15;0.15;;;;;;;;;;1817212;79;26973;-46
2022/10/20 02:09:01;;;;;;;0.20;0.20;;;;;;;;;;1819444;77;26274;-49
2022/10/20 02:11:30;;;;;;;0.20;0.20;;;;;;;;;;1817431;78;26540;-48
2022/10/20 02:13:58;;;;;;;0.13;0.13;;;;;;;;;;1838549;76;26275;-46
2022/10/20 02:16:29;;;;;;;0.17;0.17;;;;;;;;;;1841653;76;26272;-48
2022/10/20 02:18:57;;;;;;;0.10;0.10;;;;;;;;;;1817143;76;26266;-43
2022/10/20 02:21:25;;;;;;;0.20;0.20;;;;;;;;;;1847138;76;26286;-44
2022/10/20 02:23:54;;;;;;;0.20;0.20;;;;;;;;;;1848961;76;26256;-41
2022/10/20 02:26:24;;;;;;;0.10;0.10;;;;;;;;;;1840409;76;26236;-42
2022/10/20 02:28:53;;;;;;;0.13;0.13;;;;;;;;;;1841572;77;26743;-44
2022/10/20 02:31:20;;;;;;;0.20;0.20;;;;;;;;;;1841357;76;26656;-45
2022/10/20 02:33:48;;;;;;;0.15;0.15;;;;;;;;;;1834836;77;26320;-42
2022/10/20 02:36:19;;;;;;;0.20;0.20;;;;;;;;;;1814712;76;26688;-42
2022/10/20 02:38:46;;;;;;;0.10;0.10;;;;;;;;;;1804423;76;26266;-43
2022/10/20 02:41:13;;;;;;;0.35;0.15;;;;;;;;;;1842966;76;26254;-51
2022/10/20 02:43:41;;;;;;;0.53;0.33;;;;;;;;;;1839274;76;26233;-48
2022/10/20 02:46:08;;;;;;;0.10;0.10;;;;;;;;;;1826413;77;26200;-46
2022/10/20 02:48:37;;;;;;;0.30;0.30;;;;;;;;;;1803212;78;26342;-42
2022/10/20 02:51:05;;;;;;;0.23;0.10;;;;;;;;;;1803775;78;26699;-44
2022/10/20 02:53:32;;;;;;;0.50;0.13;;;;;;;;;;1827166;76;26289;-42
2022/10/20 02:56:00;;;;;;;0.20;0.10;;;;;;;;;;1873855;76;26277;-42
2022/10/20 02:58:28;;;;;;;0.30;0.30;;;;;;;;;;1862540;76;26774;-46
2022/10/20 03:00:55;;;;;;;0.37;0.30;;;;;;;;;;1870021;76;26690;-42
2022/10/20 03:03:22;;;;;;;0.20;0.20;;;;;;;;;;1859673;76;26222;-46
2022/10/20 03:05:50;;;;;;;0.15;0.15;;;;;;;;;;1862175;76;26190;-44
2022/10/20 03:08:17;;;;;;;0.15;0.15;;;;;;;;;;1873801;76;26211;-43
2022/10/20 03:10:44;;;;;;;0.20;0.20;;;;;;;;;;1870295;76;26851;-46
2022/10/20 03:13:14;;;;;;;0.10;0.10;;;;;;;;;;1873745;76;26316;-43
2022/10/20 03:15:41;;;;;;;0.20;0.20;;;;;;;;;;1850447;76;26263;-42
2022/10/20 03:18:08;;;;;;;0.65;0.30;;;;;;;;;;1841783;77;26701;-42
2022/10/20 03:20:35;;;;;;;0.13;0.13;;;;;;;;;;1839841;76;26348;-42
2022/10/20 03:23:03;;;;;;;0.17;0.17;;;;;;;;;;1840622;76;26351;-42
2022/10/20 03:25:31;;;;;;;0.10;0.10;;;;;;;;;;1829524;76;26686;-42
2022/10/20 03:27:58;;;;;;;0.20;0.20;;;;;;;;;;1831946;78;26245;-42
2022/10/20 03:30:26;;;;;;;0.30;0.30;;;;;;;;;;1835222;77;26273;-55
2022/10/20 03:32:53;;;;;;;0.20;0.20;;;;;;;;;;1836195;76;26289;-46
2022/10/20 03:35:20;;;;;;;1.80;0.25;;;;;;;;;;1835905;77;26699;-48
2022/10/20 03:37:48;;;;;;;0.23;0.23;;;;;;;;;;1837722;77;26717;-43
2022/10/20 03:40:15;;;;;;;0.20;0.20;;;;;;;;;;1834741;78;27404;-48
2022/10/20 03:42:42;;;;;;;0.20;0.20;;;;;;;;;;1835768;77;26314;-42
2022/10/20 03:45:10;;;;;;;0.75;0.20;;;;;;;;;;1834794;77;26273;-42
2022/10/20 03:47:37;;;;;;;0.10;0.10;;;;;;;;;;1834178;76;26253;-46
2022/10/20 03:50:04;;;;;;;1.55;0.20;;;;;;;;;;1827134;78;26290;-46
2022/10/20 03:52:32;;;;;;;0.10;0.10;;;;;;;;;;1821292;78;26273;-47
2022/10/20 03:54:59;;;;;;;0.20;0.20;;;;;;;;;;1821430;78;26288;-47
2022/10/20 03:57:26;;;;;;;0.30;0.30;;;;;;;;;;1836761;76;26752;-43
2022/10/20 03:59:53;;;;;;;0.13;0.13;;;;;;;;;;1848038;77;26622;-42
2022/10/20 04:02:22;;;;;;;0.23;0.23;;;;;;;;;;1833577;78;26716;-42
2022/10/20 04:04:49;;;;;;;0.20;0.20;;;;;;;;;;1844925;76;26799;-42
2022/10/20 04:07:17;;;;;;;0.10;0.10;;;;;;;;;;1833875;78;26722;-45
2022/10/20 04:09:44;;;;;;;0.55;0.40;;;;;;;;;;1833577;77;26216;-43
2022/10/20 04:12:11;;;;;;;0.30;0.30;;;;;;;;;;1841263;76;26152;-46
2022/10/20 04:14:39;;;;;;;0.40;0.20;;;;;;;;;;1839389;77;26329;-42
2022/10/20 04:17:07;;;;;;;0.13;0.13;;;;;;;;;;1847091;76;26232;-44
2022/10/20 04:19:34;;;;;;;0.20;0.20;;;;;;;;;;1845825;76;26182;-42
2022/10/20 04:22:01;;;;;;;0.10;0.10;;;;;;;;;;1846268;76;26212;-43
2022/10/20 04:24:29;;;;;;;0.20;0.20;;;;;;;;;;1839007;76;26257;-43
2022/10/20 04:26:56;;;;;;;0.15;0.15;;;;;;;;;;1827552;77;26340;-42
2022/10/20 04:29:23;;;;;;;0.20;0.20;;;;;;;;;;1818356;76;26319;-46
2022/10/20 04:31:51;;;;;;;0.20;0.20;;;;;;;;;;1833265;77;26802;-43
2022/10/20 04:34:18;;;;;;;0.30;0.30;;;;;;;;;;1833466;78;26904;-46
2022/10/20 04:36:45;;;;;;;0.15;0.15;;;;;;;;;;1836314;77;26739;-44
2022/10/20 04:39:12;;;;;;;0.13;0.13;;;;;;;;;;1837423;77;26733;-42
2022/10/20 04:41:40;;;;;;;0.20;0.20;;;;;;;;;;1836634;77;26721;-42
2022/10/20 04:44:07;;;;;;;0.20;0.20;;;;;;;;;;1835554;77;26287;-47
2022/10/20 04:46:34;;;;;;;0.23;0.20;;;;;;;;;;1834259;77;26357;-44
2022/10/20 04:49:01;;;;;;;0.17;0.17;;;;;;;;;;1833695;77;26205;-43
2022/10/20 04:51:29;;;;;;;0.20;0.20;;;;;;;;;;1833784;76;26311;-43
2022/10/20 04:53:56;;;;;;;0.20;0.20;;;;;;;;;;1844780;77;26195;-43
2022/10/20 04:56:23;;;;;;;0.20;0.20;;;;;;;;;;1868446;77;26167;-45
2022/10/20 04:58:54;;;;;;;0.30;0.30;;;;;;;;;;1842897;77;26231;-45
2022/10/20 05:01:23;;;;;;;0.17;0.17;;;;;;;;;;1839291;76;26280;-42
2022/10/20 05:03:50;;;;;;;0.20;0.20;;;;;;;;;;1841501;76;26746;-44
2022/10/20 05:06:19;;;;;;;0.20;0.20;;;;;;;;;;1839400;77;26289;-43
2022/10/20 05:08:47;;;;;;;0.10;0.10;;;;;;;;;;1839025;77;26788;-42
2022/10/20 05:11:15;;;;;;;0.10;0.10;;;;;;;;;;1818382;77;26244;-45
2022/10/20 05:13:43;;;;;;;0.20;0.20;;;;;;;;;;1837130;77;26309;-42
2022/10/20 05:16:11;;;;;;;0.20;0.20;;;;;;;;;;1840742;77;26165;-42
2022/10/20 05:18:38;;;;;;;0.20;0.20;;;;;;;;;;1848120;77;26199;-44
2022/10/20 05:21:07;;;;;;;0.20;0.20;;;;;;;;;;1851097;76;26827;-47
2022/10/20 05:23:34;;;;;;;0.15;0.10;;;;;;;;;;1836451;76;26269;-46
2022/10/20 05:26:02;;;;;;;0.30;0.30;;;;;;;;;;1851481;77;26207;-44
2022/10/20 05:28:29;;;;;;;0.30;0.30;;;;;;;;;;1861891;77;26220;-56
2022/10/20 05:30:58;;;;;;;1.35;0.37;;;;;;;;;;1845555;77;26207;-46
2022/10/20 05:33:25;;;;;;;0.30;0.30;;;;;;;;;;1843120;76;26307;-47
2022/10/20 05:35:53;;;;;;;2.35;0.30;;;;;;;;;;1844601;77;26226;-41
2022/10/20 05:38:20;;;;;;;1.27;0.30;;;;;;;;;;1867100;77;26151;-51
2022/10/20 05:40:47;;;;;;;0.65;0.30;;;;;;;;;;1838247;77;26282;-44
2022/10/20 05:43:14;;;;;;;0.20;0.20;;;;;;;;;;1835233;77;26260;-42
2022/10/20 05:45:42;;;;;;;0.35;0.20;;;;;;;;;;1834741;77;26369;-42
2022/10/20 05:48:09;;;;;;;1.02;0.30;;;;;;;;;;1836202;77;26691;-46
2022/10/20 05:50:37;;;;;;;2.62;0.40;;;;;;;;;;1839562;77;26829;-47
2022/10/20 05:53:04;;;;;;;1.15;0.30;;;;;;;;;;1839482;77;26232;-46
2022/10/20 05:55:32;;;;;;;0.95;0.53;;;;;;;;;;1854181;77;26215;-43
2022/10/20 05:57:59;;;;;;;0.72;0.30;;;;;;;;;;1849906;77;26211;-45
2022/10/20 06:00:29;;;;;;;1.02;0.30;;;;;;;;;;1850689;77;26286;-47
2022/10/20 06:02:56;;;;;;;3.12;0.50;;;;;;;;;;1854299;76;26388;-43
2022/10/20 06:05:24;;;;;;;0.53;0.53;;;;;;;;;;1853242;77;26286;-45
2022/10/20 06:07:53;;;;;;;0.20;0.20;;;;;;;;;;1853719;77;26240;-49
2022/10/20 06:10:20;;;;;;;0.40;0.40;;;;;;;;;;1847833;77;26300;-52
2022/10/20 06:12:48;;;;;;;2.47;0.50;;;;;;;;;;1826231;76;26699;-42
2022/10/20 06:15:15;;;;;;;1.20;0.33;;;;;;;;;;1831420;77;26353;-44
2022/10/20 06:17:42;;;;;;;0.30;0.30;;;;;;;;;;1840640;77;26715;-49
2022/10/20 06:20:10;;;;;;;1.30;0.40;;;;;;;;;;1813321;78;26725;-50
2022/10/20 06:22:37;;;;;;;1.95;0.50;;;;;;;;;;1810396;78;26255;-42
2022/10/20 06:25:05;;;;;;;0.35;0.25;;;;;;;;;;1829895;78;26389;-45
2022/10/20 06:27:32;;;;;;;0.40;0.40;;;;;;;;;;1810228;76;26271;-46
2022/10/20 06:29:59;;;;;;;0.88;0.40;;;;;;;;;;1812933;78;26739;-42
2022/10/20 06:32:26;;;;;;;0.75;0.23;;;;;;;;;;1832931;76;26796;-44
2022/10/20 06:34:54;;;;;;;1.77;0.50;;;;;;;;;;1813871;76;27462;-44
2022/10/20 06:37:21;;;;;;;0.72;0.40;;;;;;;;;;1814291;77;27278;-49
2022/10/20 06:39:48;;;;;;;0.40;0.35;;;;;;;;;;1841845;78;26728;-46
2022/10/20 06:42:15;;;;;;;2.08;0.40;;;;;;;;;;1835344;78;26530;-42
2022/10/20 06:44:43;;;;;;;0.82;0.50;;;;;;;;;;1812147;78;26486;-41
2022/10/20 06:47:10;;;;;;;2.42;0.40;;;;;;;;;;1813174;78;26283;-56
2022/10/20 06:49:37;;;;;;;2.75;0.55;;;;;;;;;;1812506;78;26240;-45
2022/10/20 06:52:04;;;;;;;3.22;0.40;;;;;;;;;;1812983;78;26264;-43
2022/10/20 06:54:32;;;;;;;0.30;0.30;;;;;;;;;;1813549;78;26346;-48
2022/10/20 06:56:59;;;;;;;0.72;0.50;;;;;;;;;;1827598;78;26253;-41
2022/10/20 06:59:26;;;;;;;0.57;0.40;;;;;;;;;;1835874;77;26273;-47
2022/10/20 07:01:53;;;;;;;0.53;0.30;;;;;;;;;;1829994;78;26346;-46
2022/10/20 07:04:21;;;;;;;2.05;0.60;;;;;;;;;;1832978;78;26245;-44
2022/10/20 07:06:48;;;;;;;0.60;0.50;;;;;;;;;;1812906;78;26321;-45
2022/10/20 07:09:17;;;;;;;0.20;0.20;;;;;;;;;;1814681;78;26760;-41
2022/10/20 07:11:45;;;;;;;0.68;0.30;;;;;;;;;;1807945;78;26341;-44
2022/10/20 07:14:13;;;;;;;0.82;0.50;;;;;;;;;;1813684;78;26674;-47
2022/10/20 07:16:40;;;;;;;1.90;0.30;;;;;;;;;;1807099;77;26342;-48
2022/10/20 07:19:07;;;;;;;0.23;0.20;;;;;;;;;;1803149;78;26750;-60
2022/10/20 07:21:35;;;;;;;0.72;0.72;;;;;;;;;;1803409;78;26684;-45
2022/10/20 07:24:03;;;;;;;0.40;0.28;;;;;;;;;;1803759;78;26271;-44
2022/10/20 07:26:32;;;;;;;0.68;0.30;;;;;;;;;;1818664;78;26732;-58
2022/10/20 07:29:00;;;;;;;4.80;0.40;;;;;;;;;;1826726;77;26327;-42
2022/10/20 07:31:29;;;;;;;0.42;0.30;;;;;;;;;;1801326;78;26233;-47
2022/10/20 07:33:58;;;;;;;0.37;0.28;;;;;;;;;;1802788;78;26262;-42
2022/10/20 07:36:26;;;;;;;0.30;0.30;;;;;;;;;;1803609;78;26735;-47
2022/10/20 07:38:55;;;;;;;0.55;0.40;;;;;;;;;;1808850;78;26681;-44
2022/10/20 07:41:23;;;;;;;1.45;0.37;;;;;;;;;;1812914;77;26684;-44
2022/10/20 07:43:51;;;;;;;1.60;0.40;;;;;;;;;;1803639;78;26755;-42
2022/10/20 07:46:18;;;;;;;0.72;0.40;;;;;;;;;;1803646;79;26347;-43
2022/10/20 07:48:46;;;;;;;0.50;0.30;;;;;;;;;;1803261;78;26269;-42
2022/10/20 07:51:14;;;;;;;0.45;0.33;;;;;;;;;;1802268;78;26736;-44
2022/10/20 07:53:42;;;;;;;1.12;0.30;;;;;;;;;;1805499;78;26242;-42
2022/10/20 07:56:09;;;;;;;0.30;0.30;;;;;;;;;;1809608;78;26238;-44
2022/10/20 07:58:36;;;;;;;0.30;0.30;;;;;;;;;;1815381;78;26279;-49
2022/10/20 08:01:04;;;;;;;0.10;0.10;;;;;;;;;;1813525;78;27278;-46
2022/10/20 08:03:31;;;;;;;0.40;0.40;;;;;;;;;;1810954;78;26656;-49
2022/10/20 08:05:59;;;;;;;1.47;0.40;;;;;;;;;;1800648;78;26377;-45
2022/10/20 08:08:26;;;;;;;2.83;0.40;;;;;;;;;;1802951;78;26719;-43
2022/10/20 08:10:53;;;;;;;0.30;0.30;;;;;;;;;;1810907;78;26422;-42
2022/10/20 08:13:21;;;;;;;0.15;0.15;;;;;;;;;;1801867;78;26256;-49
2022/10/20 08:15:48;;;;;;;0.25;0.25;;;;;;;;;;1808065;76;26449;-60
2022/10/20 08:18:15;;;;;;;0.20;0.20;;;;;;;;;;1839705;76;26744;-46
2022/10/20 08:20:44;;;;;;;1.25;0.30;;;;;;;;;;1839575;76;26864;-45
2022/10/20 08:23:12;;;;;;;0.35;0.35;;;;;;;;;;1835765;76;26328;-44
2022/10/20 08:25:40;;;;;;;0.30;0.30;;;;;;;;;;1829587;77;26310;-46
2022/10/20 08:28:08;;;;;;;0.20;0.20;;;;;;;;;;1835688;77;27457;-44
2022/10/20 08:30:35;;;;;;;0.30;0.30;;;;;;;;;;1846197;76;26275;-42
2022/10/20 08:33:02;;;;;;;2.60;0.35;;;;;;;;;;1844887;76;26609;-42
2022/10/20 08:35:30;;;;;;;0.50;0.40;;;;;;;;;;1836041;76;26286;-45
2022/10/20 08:37:57;;;;;;;0.30;0.30;;;;;;;;;;1835829;76;26732;-41
2022/10/20 08:40:26;;;;;;;0.13;0.13;;;;;;;;;;1843673;76;26672;-45
2022/10/20 08:42:54;;;;;;;0.20;0.20;;;;;;;;;;1841996;76;26284;-47
2022/10/20 08:45:23;;;;;;;0.23;0.23;;;;;;;;;;1837151;76;26204;-44
2022/10/20 08:47:51;;;;;;;1.17;0.40;;;;;;;;;;1836831;76;26387;-49
2022/10/20 08:50:20;;;;;;;0.42;0.40;;;;;;;;;;1839713;76;26225;-45
2022/10/20 08:52:49;;;;;;;1.85;0.30;;;;;;;;;;1824851;76;26272;-45
2022/10/20 08:55:20;;;;;;;0.28;0.28;;;;;;;;;;1839502;76;26362;-47
2022/10/20 08:57:48;;;;;;;0.93;0.40;;;;;;;;;;1836005;76;26325;-43
2022/10/20 09:00:22;;;;;;;0.20;0.20;;;;;;;;;;1850088;76;26204;-49
2022/10/20 09:02:50;;;;;;;0.20;0.20;;;;;;;;;;1847633;76;26849;-47
2022/10/20 09:05:19;;;;;;;0.17;0.17;;;;;;;;;;1836403;78;26224;-45
2022/10/20 09:07:50;;;;;;;0.23;0.23;;;;;;;;;;1836518;76;26286;-44
2022/10/20 09:10:25;;;;;;;0.20;0.20;;;;;;;;;;1828358;76;26362;-45
2022/10/20 09:12:52;;;;;;;0.20;0.20;;;;;;;;;;1838038;76;26330;-46
2022/10/20 09:15:20;;;;;;;0.30;0.30;;;;;;;;;;1841811;76;26655;-45
2022/10/20 09:17:52;;;;;;;0.20;0.20;;;;;;;;;;1837405;76;26306;-50
2022/10/20 09:20:24;;;;;;;0.47;0.37;;;;;;;;;;1836148;77;26608;-43
2022/10/20 09:22:51;;;;;;;0.30;0.30;;;;;;;;;;1848913;76;26330;-44
2022/10/20 09:25:22;;;;;;;0.40;0.20;;;;;;;;;;1857002;76;26711;-45
2022/10/20 09:27:50;;;;;;;0.50;0.50;;;;;;;;;;1852707;77;26642;-41
2022/10/20 09:30:19;;;;;;;0.60;0.28;;;;;;;;;;1842275;77;26778;-43
2022/10/20 09:32:46;;;;;;;0.75;0.30;;;;;;;;;;1837870;77;26740;-58
2022/10/20 09:35:21;;;;;;;0.47;0.45;;;;;;;;;;1835237;77;26353;-42
2022/10/20 09:37:56;;;;;;;0.30;0.30;;;;;;;;;;1836689;77;26207;-41
2022/10/20 09:40:25;;;;;;;0.30;0.30;;;;;;;;;;1841768;77;26252;-51
2022/10/20 09:42:53;;;;;;;0.30;0.28;;;;;;;;;;1838369;77;26626;-42
2022/10/20 09:45:31;;;;;;;2.58;0.30;;;;;;;;;;1834832;77;26378;-47
2022/10/20 09:48:00;;;;;;;1.87;0.30;;;;;;;;;;1833327;77;26299;-42
2022/10/20 09:50:32;;;;;;;0.20;0.20;;;;;;;;;;1824914;77;26535;-47
2022/10/20 09:53:00;;;;;;;0.90;0.30;;;;;;;;;;1831173;76;26566;-46
2022/10/20 09:55:31;;;;;;;0.28;0.28;;;;;;;;;;1848709;77;26333;-42
2022/10/20 09:58:00;;;;;;;0.20;0.20;;;;;;;;;;1833286;77;26733;-43
2022/10/20 10:00:32;;;;;;;0.55;0.30;;;;;;;;;;1852682;77;26264;-47
2022/10/20 10:03:01;;;;;;;1.12;0.30;;;;;;;;;;1834474;78;26309;-44
2022/10/20 10:05:30;;;;;;;0.50;0.33;;;;;;;;;;1831906;78;26319;-48
2022/10/20 10:07:58;;;;;;;0.25;0.25;;;;;;;;;;1834067;77;26274;-43
2022/10/20 10:10:28;;;;;;;0.30;0.30;;;;;;;;;;1836352;77;26517;-45
2022/10/20 10:12:56;;;;;;;0.40;0.40;;;;;;;;;;1835484;77;26709;-47
2022/10/20 10:15:31;;;;;;;0.40;0.40;;;;;;;;;;1834566;77;26708;-50
2022/10/20 10:17:59;;;;;;;0.25;0.25;;;;;;;;;;1805552;77;26277;-43
2022/10/20 10:20:31;;;;;;;0.28;0.28;;;;;;;;;;1800330;78;26823;-49
2022/10/20 10:23:18;;;;;;;0.30;0.30;;;;;;;;;;1797342;78;26295;-46
2022/10/20 10:25:45;;;;;;;0.25;0.25;;;;;;;;;;1794415;78;26272;-44
2022/10/20 10:28:29;;;;;;;0.62;0.40;;;;;;;;;;1799856;78;26771;-42
2022/10/20 10:31:07;;;;;;;0.30;0.30;;;;;;;;;;1796390;78;26370;-45
2022/10/20 10:33:35;;;;;;;0.20;0.20;;;;;;;;;;1777990;78;26245;-44
2022/10/20 10:36:03;;;;;;;0.20;0.20;;;;;;;;;;1828551;78;27470;-48
2022/10/20 10:38:30;;;;;;;0.30;0.30;;;;;;;;;;1809821;78;26241;-45
2022/10/20 10:41:17;;;;;;;0.88;0.50;;;;;;;;;;1820404;78;26344;-49
2022/10/20 10:44:04;;;;;;;0.30;0.30;;;;;;;;;;1828230;78;26738;-49
2022/10/20 10:46:35;;;;;;;0.30;0.30;;;;;;;;;;1829769;78;26818;-51
2022/10/20 10:49:06;;;;;;;0.30;0.30;;;;;;;;;;1802044;78;26280;-46
2022/10/20 10:51:50;;;;;;;0.40;0.40;;;;;;;;;;1804322;78;26547;-45
2022/10/20 10:54:25;;;;;;;0.40;0.40;;;;;;;;;;1811383;78;26264;-45
2022/10/20 10:56:57;;;;;;;0.40;0.40;;;;;;;;;;1792304;78;26704;-49
2022/10/20 10:59:29;;;;;;;0.35;0.35;;;;;;;;;;1817333;78;26260;-48
2022/10/20 11:02:03;;;;;;;1.02;0.42;;;;;;;;;;1814791;78;26342;-46
2022/10/20 11:04:44;;;;;;;0.45;0.45;;;;;;;;;;1821323;78;26248;-48
2022/10/20 11:07:13;;;;;;;0.60;0.60;;;;;;;;;;1759354;80;26758;-43
2022/10/20 11:09:48;;;;;;;0.37;0.37;;;;;;;;;;1794878;78;26703;-48
2022/10/20 11:12:35;;;;;;;0.40;0.40;;;;;;;;;;1786833;78;27470;-48
2022/10/20 11:15:16;;;;;;;0.60;0.60;;;;;;;;;;1788477;78;26829;-46
2022/10/20 11:17:48;;;;;;;1.65;0.50;;;;;;;;;;1803862;78;26328;-51
2022/10/20 11:20:23;;;;;;;1.42;0.60;;;;;;;;;;1800555;78;26276;-47
2022/10/20 11:23:08;;;;;;;0.78;0.60;;;;;;;;;;1801608;78;26271;-50
2022/10/20 11:25:52;;;;;;;0.82;0.50;;;;;;;;;;1798804;77;26252;-50
2022/10/20 11:28:24;;;;;;;1.45;0.55;;;;;;;;;;1799173;78;27551;-59
2022/10/20 11:30:52;;;;;;;0.55;0.55;;;;;;;;;;1788370;78;26818;-44
2022/10/20 11:33:20;;;;;;;0.50;0.50;;;;;;;;;;1805060;78;26716;-42
2022/10/20 11:35:49;;;;;;;0.53;0.53;;;;;;;;;;1808726;77;26319;-47
2022/10/20 11:38:18;;;;;;;1.15;0.60;;;;;;;;;;1815625;78;26646;-42
2022/10/20 11:40:50;;;;;;;0.62;0.62;;;;;;;;;;1797507;78;26276;-54
2022/10/20 11:43:19;;;;;;;0.60;0.60;;;;;;;;;;1802741;78;26287;-53
2022/10/20 11:46:03;;;;;;;1.90;0.70;;;;;;;;;;1798436;78;26323;-44
2022/10/20 11:48:48;;;;;;;2.55;0.70;;;;;;;;;;1803774;78;26265;-48
2022/10/20 11:51:20;;;;;;;2.35;0.70;;;;;;;;;;1802512;78;26355;-42
2022/10/20 11:54:01;;;;;;;4.90;0.78;;;;;;;;;;1813434;78;26871;-45
2022/10/20 11:56:36;;;;;;;0.60;0.60;;;;;;;;;;1802544;78;26342;-46
2022/10/20 11:59:08;;;;;;;0.95;0.60;;;;;;;;;;1801323;78;26335;-42
2022/10/20 12:01:40;;;;;;;0.60;0.60;;;;;;;;;;1801152;79;26767;-43
2022/10/20 12:04:14;;;;;;;0.78;0.78;;;;;;;;;;1802581;78;26220;-43
2022/10/20 12:06:49;;;;;;;1.22;0.70;;;;;;;;;;1807867;78;27007;-44
2022/10/20 12:09:27;;;;;;;0.70;0.70;;;;;;;;;;1807093;77;25340;-44
2022/10/20 12:12:05;;;;;;;0.50;0.50;;;;;;;;;;1785881;78;26276;-48
2022/10/20 12:14:42;;;;;;;0.50;0.50;;;;;;;;;;1802315;77;26831;-44
2022/10/20 12:17:14;;;;;;;0.70;0.70;;;;;;;;;;1814171;77;26745;-41
2022/10/20 12:19:41;;;;;;;0.70;0.70;;;;;;;;;;1800564;78;26272;-49
2022/10/20 12:22:15;;;;;;;0.60;0.60;;;;;;;;;;1806813;78;26257;-46
2022/10/20 12:24:53;;;;;;;0.70;0.70;;;;;;;;;;1802738;78;26369;-45
2022/10/20 12:27:26;;;;;;;0.60;0.60;;;;;;;;;;1815058;78;26656;-42
2022/10/20 12:29:55;;;;;;;0.70;0.70;;;;;;;;;;1802178;78;26815;-46
2022/10/20 12:32:30;;;;;;;0.60;0.60;;;;;;;;;;1804398;78;26272;-49
2022/10/20 12:35:02;;;;;;;0.60;0.60;;;;;;;;;;1803220;78;26720;-42
2022/10/20 12:37:30;;;;;;;0.60;0.60;;;;;;;;;;1804597;78;26295;-45
2022/10/20 12:40:02;;;;;;;0.60;0.60;;;;;;;;;;1802481;78;26275;-45
2022/10/20 12:42:30;;;;;;;0.65;0.65;;;;;;;;;;1805197;78;26285;-45
2022/10/20 12:45:07;;;;;;;1.27;0.60;;;;;;;;;;1807839;78;26283;-45
2022/10/20 12:47:36;;;;;;;1.30;0.70;;;;;;;;;;1804396;78;26776;-43
2022/10/20 12:50:07;;;;;;;0.60;0.60;;;;;;;;;;1803299;78;26455;-45
2022/10/20 12:52:36;;;;;;;0.95;0.80;;;;;;;;;;1802693;78;26321;-41
2022/10/20 12:55:05;;;;;;;0.70;0.70;;;;;;;;;;1803734;78;26267;-54
2022/10/20 12:57:43;;;;;;;2.47;0.50;;;;;;;;;;1810851;78;26769;-49
2022/10/20 13:00:22;;;;;;;1.27;0.60;;;;;;;;;;1806365;78;26271;-47
2022/10/20 13:02:56;;;;;;;0.60;0.60;;;;;;;;;;1803227;78;26792;-42
2022/10/20 13:05:25;;;;;;;0.55;0.55;;;;;;;;;;1807835;78;26763;-49
2022/10/20 13:07:56;;;;;;;0.65;0.42;;;;;;;;;;1804692;78;26247;-47
2022/10/20 13:10:38;;;;;;;0.50;0.50;;;;;;;;;;1803748;78;26818;-42
2022/10/20 13:13:07;;;;;;;0.90;0.50;;;;;;;;;;1809711;78;26260;-42
2022/10/20 13:15:35;;;;;;;3.58;0.60;;;;;;;;;;1801391;78;26248;-55
2022/10/20 13:18:07;;;;;;;0.50;0.45;;;;;;;;;;1807370;76;26283;-48
2022/10/20 13:20:53;;;;;;;0.60;0.60;;;;;;;;;;1834857;77;26279;-52
2022/10/20 13:23:27;;;;;;;0.55;0.55;;;;;;;;;;1834943;76;26828;-49
2022/10/20 13:25:56;;;;;;;1.27;0.50;;;;;;;;;;1837383;77;26258;-43
2022/10/20 13:28:31;;;;;;;0.62;0.62;;;;;;;;;;1833741;76;26265;-49
2022/10/20 13:31:18;;;;;;;1.75;0.70;;;;;;;;;;1827810;76;26260;-41
2022/10/20 13:33:50;;;;;;;0.50;0.50;;;;;;;;;;1820173;76;26295;-53
2022/10/20 13:36:21;;;;;;;2.30;0.60;;;;;;;;;;1851510;76;26195;-51
2022/10/20 13:39:06;;;;;;;0.62;0.50;;;;;;;;;;1835902;76;26261;-55
2022/10/20 13:41:35;;;;;;;0.50;0.50;;;;;;;;;;1848595;76;26278;-55
2022/10/20 13:44:04;;;;;;;0.50;0.50;;;;;;;;;;1843276;76;26300;-45
2022/10/20 13:46:38;;;;;;;1.37;0.50;;;;;;;;;;1835481;75;26277;-50
2022/10/20 13:49:19;;;;;;;0.50;0.50;;;;;;;;;;1839658;77;26515;-56
2022/10/20 13:51:48;;;;;;;1.47;0.50;;;;;;;;;;1773145;76;27449;-49
2022/10/20 13:54:17;;;;;;;1.05;0.45;;;;;;;;;;1846317;76;26730;-50
2022/10/20 13:56:46;;;;;;;0.50;0.50;;;;;;;;;;1834083;76;27210;-46
2022/10/20 13:59:17;;;;;;;2.42;0.50;;;;;;;;;;1844477;76;26193;-43
2022/10/20 14:01:46;;;;;;;0.50;0.50;;;;;;;;;;1840726;76;26435;-46
2022/10/20 14:04:30;;;;;;;0.50;0.50;;;;;;;;;;1853187;76;26640;-45
2022/10/20 14:07:02;;;;;;;0.42;0.42;;;;;;;;;;1839018;78;26369;-47
2022/10/20 14:09:29;;;;;;;1.52;0.40;;;;;;;;;;1822412;77;26212;-44
2022/10/20 14:11:58;;;;;;;0.82;0.40;;;;;;;;;;1839917;76;26225;-43
2022/10/20 14:14:26;;;;;;;0.50;0.50;;;;;;;;;;1843238;76;26274;-46
2022/10/20 14:17:07;;;;;;;0.30;0.30;;;;;;;;;;1841124;76;26266;-52
2022/10/20 14:19:35;;;;;;;0.62;0.50;;;;;;;;;;1832129;77;26273;-45
2022/10/20 14:22:03;;;;;;;0.40;0.40;;;;;;;;;;1837640;77;26906;-44
2022/10/20 14:24:35;;;;;;;0.50;0.50;;;;;;;;;;1831617;76;26737;-48
2022/10/20 14:27:03;;;;;;;0.50;0.50;;;;;;;;;;1850359;77;26295;-45
2022/10/20 14:29:32;;;;;;;0.50;0.50;;;;;;;;;;1842147;77;26360;-55
2022/10/20 14:32:00;;;;;;;0.60;0.60;;;;;;;;;;1827039;77;26807;-48
2022/10/20 14:34:28;;;;;;;2.30;0.45;;;;;;;;;;1832994;77;26302;-46
2022/10/20 14:36:56;;;;;;;1.70;0.50;;;;;;;;;;1835538;77;26737;-47
2022/10/20 14:39:36;;;;;;;0.50;0.50;;;;;;;;;;1829917;78;26319;-48
2022/10/20 14:42:05;;;;;;;0.60;0.60;;;;;;;;;;1835090;77;26353;-45
2022/10/20 14:44:34;;;;;;;2.10;0.40;;;;;;;;;;1831908;77;26347;-50
2022/10/20 14:47:05;;;;;;;0.50;0.50;;;;;;;;;;1841014;77;26737;-47
2022/10/20 14:49:34;;;;;;;1.37;0.50;;;;;;;;;;1833643;77;26238;-43
2022/10/20 14:52:05;;;;;;;0.90;0.50;;;;;;;;;;1828735;77;26274;-47
2022/10/20 14:54:37;;;;;;;1.77;0.57;;;;;;;;;;1838449;77;26318;-48
2022/10/20 14:57:09;;;;;;;0.40;0.40;;;;;;;;;;1854564;77;26227;-42
2022/10/20 14:59:38;;;;;;;0.60;0.60;;;;;;;;;;1851194;77;26707;-41
2022/10/20 15:02:08;;;;;;;0.30;0.30;;;;;;;;;;1844142;76;26210;-46
2022/10/20 15:04:37;;;;;;;0.70;0.50;;;;;;;;;;1837733;77;26188;-44